createdAt,value
2019-05-22T00:00:58.382Z,5.30
2019-05-22T00:02:04.079Z,5.20
2019-05-22T00:03:24.409Z,4.70
2019-05-22T00:04:33.009Z,4.80
2019-05-22T00:05:38.621Z,3.90
2019-05-22T00:06:44.127Z,3.50
2019-05-22T00:07:48.938Z,3.30
2019-05-22T00:08:53.246Z,2.87
2019-05-22T00:09:58.886Z,3.70
2019-05-22T00:11:04.368Z,3.60
2019-05-22T00:12:11.445Z,3.93
2019-05-22T00:13:18.634Z,3.80
2019-05-22T00:14:24.319Z,3.07
2019-05-22T00:15:30.525Z,3.13
2019-05-22T00:16:35.219Z,2.47
2019-05-22T00:17:40.965Z,2.40
2019-05-22T00:18:45.065Z,2.57
2019-05-22T00:19:50.026Z,2.10
2019-05-22T00:20:54.218Z,2.50
2019-05-22T00:22:12.138Z,1.90
2019-05-22T00:23:17.449Z,1.90
2019-05-22T00:24:23.518Z,1.90
2019-05-22T00:25:29.095Z,2.07
2019-05-22T00:26:33.571Z,1.97
2019-05-22T00:27:38.483Z,1.97
2019-05-22T00:28:43.696Z,2.17
2019-05-22T00:29:48.310Z,1.70
2019-05-22T00:30:53.014Z,1.70
2019-05-22T00:31:57.254Z,1.60
2019-05-22T00:33:01.653Z,1.77
2019-05-22T00:34:06.172Z,1.87
2019-05-22T00:35:10.977Z,1.80
2019-05-22T00:36:14.624Z,1.77
2019-05-22T00:37:19.405Z,1.77
2019-05-22T00:38:23.624Z,1.70
2019-05-22T00:39:29.298Z,1.70
2019-05-22T00:40:35.182Z,2.00
2019-05-22T00:41:40.861Z,1.60
2019-05-22T00:43:01.146Z,1.73
2019-05-22T00:43:52.198Z,1.50
2019-05-22T00:44:56.011Z,2.00
2019-05-22T00:46:02.744Z,1.57
2019-05-22T00:47:08.333Z,1.73
2019-05-22T00:48:15.308Z,1.83
2019-05-22T00:49:20.614Z,1.90
2019-05-22T00:50:30.655Z,2.00
2019-05-22T00:51:43.525Z,1.83
2019-05-22T00:53:04.321Z,1.90
2019-05-22T00:54:26.763Z,1.70
2019-05-22T00:55:48.438Z,2.10
2019-05-22T00:56:56.587Z,2.00
2019-05-22T00:58:02.170Z,2.20
2019-05-22T00:59:17.918Z,2.17
2019-05-22T01:00:39.307Z,1.97
2019-05-22T01:01:54.787Z,1.90
2019-05-22T01:03:00.253Z,2.20
2019-05-22T01:04:05.870Z,2.13
2019-05-22T01:05:09.557Z,2.20
2019-05-22T01:06:13.954Z,2.40
2019-05-22T01:07:18.840Z,2.50
2019-05-22T01:08:24.328Z,2.10
2019-05-22T01:09:32.927Z,2.10
2019-05-22T01:10:38.262Z,2.00
2019-05-22T01:11:45.492Z,2.60
2019-05-22T01:12:54.863Z,2.73
2019-05-22T01:14:01.490Z,2.80
2019-05-22T01:15:11.349Z,2.90
2019-05-22T01:16:16.052Z,2.43
2019-05-22T01:17:21.784Z,2.70
2019-05-22T01:18:28.358Z,2.67
2019-05-22T01:19:34.835Z,3.27
2019-05-22T01:20:41.524Z,2.70
2019-05-22T01:21:46.579Z,2.73
2019-05-22T01:22:52.193Z,2.27
2019-05-22T01:23:58.287Z,2.67
2019-05-22T01:25:03.855Z,2.60
2019-05-22T01:26:09.940Z,2.80
2019-05-22T01:27:14.337Z,2.60
2019-05-22T01:28:20.768Z,2.40
2019-05-22T01:29:24.885Z,2.83
2019-05-22T01:30:38.827Z,2.70
2019-05-22T01:31:44.471Z,2.57
2019-05-22T01:32:52.116Z,2.93
2019-05-22T01:33:57.619Z,3.03
2019-05-22T01:35:02.463Z,2.70
2019-05-22T01:36:07.820Z,2.90
2019-05-22T01:37:14.229Z,2.90
2019-05-22T01:38:19.508Z,2.50
2019-05-22T01:39:33.695Z,3.10
2019-05-22T01:41:06.009Z,2.87
2019-05-22T01:42:12.674Z,3.10
2019-05-22T01:43:19.489Z,3.20
2019-05-22T01:44:24.813Z,4.23
2019-05-22T01:45:30.193Z,5.30
2019-05-22T01:46:36.282Z,7.07
2019-05-22T01:47:44.516Z,8.20
2019-05-22T01:48:51.254Z,8.80
2019-05-22T01:49:56.950Z,9.10
2019-05-22T01:51:02.417Z,8.80
2019-05-22T01:52:07.356Z,9.30
2019-05-22T01:53:12.646Z,8.73
2019-05-22T01:54:18.820Z,8.33
2019-05-22T01:55:23.716Z,8.00
2019-05-22T01:56:29.142Z,8.90
2019-05-22T01:57:34.147Z,11.87
2019-05-22T01:58:39.728Z,11.97
2019-05-22T01:59:45.372Z,10.43
2019-05-22T02:00:51.881Z,9.97
2019-05-22T02:01:57.699Z,10.20
2019-05-22T02:03:03.387Z,9.73
2019-05-22T02:04:07.960Z,9.53
2019-05-22T02:05:12.740Z,8.00
2019-05-22T02:06:19.907Z,7.57
2019-05-22T02:07:25.125Z,4.87
2019-05-22T02:08:31.310Z,4.80
2019-05-22T02:09:38.673Z,4.03
2019-05-22T02:10:44.383Z,3.80
2019-05-22T02:11:52.850Z,3.80
2019-05-22T02:12:59.796Z,6.50
2019-05-22T02:14:16.014Z,8.13
2019-05-22T02:15:20.042Z,6.13
2019-05-22T02:16:25.061Z,5.70
2019-05-22T02:17:33.251Z,4.73
2019-05-22T02:18:40.034Z,4.33
2019-05-22T02:19:43.793Z,4.00
2019-05-22T02:20:48.935Z,4.77
2019-05-22T02:21:54.211Z,3.43
2019-05-22T02:22:58.828Z,3.30
2019-05-22T02:24:02.802Z,3.40
2019-05-22T02:25:09.412Z,3.20
2019-05-22T02:26:13.623Z,2.93
2019-05-22T02:27:19.082Z,3.43
2019-05-22T02:28:22.922Z,3.00
2019-05-22T02:29:27.334Z,2.70
2019-05-22T02:30:31.290Z,3.07
2019-05-22T02:31:36.945Z,3.07
2019-05-22T02:32:41.058Z,3.33
2019-05-22T02:34:01.350Z,3.03
2019-05-22T02:35:08.391Z,3.37
2019-05-22T02:36:12.583Z,3.57
2019-05-22T02:37:16.910Z,3.50
2019-05-22T02:38:21.877Z,2.93
2019-05-22T02:39:27.216Z,3.37
2019-05-22T02:40:35.748Z,2.80
2019-05-22T02:41:42.674Z,2.40
2019-05-22T02:42:47.449Z,2.80
2019-05-22T02:43:51.074Z,2.83
2019-05-22T02:44:56.130Z,2.73
2019-05-22T02:46:00.412Z,2.67
2019-05-22T02:47:18.919Z,2.43
2019-05-22T02:48:11.981Z,2.50
2019-05-22T02:49:17.851Z,2.80
2019-05-22T02:50:22.362Z,2.50
2019-05-22T02:51:27.847Z,2.83
2019-05-22T02:52:32.037Z,2.50
2019-05-22T02:53:36.983Z,2.97
2019-05-22T02:54:40.910Z,2.80
2019-05-22T02:55:45.522Z,2.67
2019-05-22T02:56:50.278Z,2.83
2019-05-22T02:57:55.036Z,3.07
2019-05-22T02:59:00.417Z,2.87
2019-05-22T03:00:07.605Z,2.77
2019-05-22T03:01:13.200Z,2.97
2019-05-22T03:02:18.683Z,2.80
2019-05-22T03:03:23.785Z,3.13
2019-05-22T03:04:32.310Z,3.27
2019-05-22T03:05:36.380Z,4.43
2019-05-22T03:06:40.955Z,5.10
2019-05-22T03:07:46.714Z,5.23
2019-05-22T03:09:00.330Z,7.00
2019-05-22T03:10:05.450Z,6.70
2019-05-22T03:11:10.223Z,5.80
2019-05-22T03:12:14.119Z,5.87
2019-05-22T03:13:20.242Z,5.40
2019-05-22T03:14:26.963Z,5.53
2019-05-22T03:15:31.941Z,4.77
2019-05-22T03:16:38.508Z,4.73
2019-05-22T03:17:44.477Z,4.27
2019-05-22T03:19:07.595Z,5.10
2019-05-22T03:19:55.333Z,6.47
2019-05-22T03:20:59.333Z,8.53
2019-05-22T03:22:08.334Z,8.80
2019-05-22T03:23:36.895Z,8.50
2019-05-22T03:24:42.075Z,8.60
2019-05-22T03:25:47.807Z,8.90
2019-05-22T03:26:54.083Z,9.43
2019-05-22T03:27:58.652Z,9.73
2019-05-22T03:29:03.135Z,9.80
2019-05-22T03:30:10.311Z,9.40
2019-05-22T03:31:16.197Z,9.87
2019-05-22T03:32:19.902Z,9.53
2019-05-22T03:33:24.490Z,9.43
2019-05-22T03:34:28.677Z,9.03
2019-05-22T03:35:35.764Z,9.20
2019-05-22T03:36:39.514Z,9.40
2019-05-22T03:37:44.279Z,8.63
2019-05-22T03:38:48.890Z,8.07
2019-05-22T03:39:53.202Z,7.03
2019-05-22T03:40:57.679Z,7.30
2019-05-22T03:42:03.618Z,9.17
2019-05-22T03:43:20.599Z,8.87
2019-05-22T03:44:25.378Z,8.13
2019-05-22T03:45:31.239Z,8.30
2019-05-22T03:46:38.742Z,9.30
2019-05-22T03:47:42.885Z,10.07
2019-05-22T03:48:47.567Z,8.93
2019-05-22T03:49:51.533Z,9.03
2019-05-22T03:51:11.808Z,9.53
2019-05-22T03:52:16.939Z,8.77
2019-05-22T03:53:21.578Z,9.07
2019-05-22T03:54:25.559Z,9.43
2019-05-22T03:55:30.333Z,9.47
2019-05-22T03:56:37.516Z,10.60
2019-05-22T03:57:42.375Z,9.70
2019-05-22T03:58:47.287Z,5.90
2019-05-22T03:59:51.673Z,6.10
2019-05-22T04:00:56.663Z,5.13
2019-05-22T04:02:01.194Z,4.67
2019-05-22T04:03:05.992Z,4.10
2019-05-22T04:04:12.026Z,3.10
2019-05-22T04:05:18.676Z,2.80
2019-05-22T04:06:24.624Z,2.87
2019-05-22T04:07:28.815Z,2.43
2019-05-22T04:08:33.480Z,2.70
2019-05-22T04:09:40.285Z,3.40
2019-05-22T04:11:00.441Z,2.47
2019-05-22T04:12:04.311Z,2.30
2019-05-22T04:13:08.840Z,2.47
2019-05-22T04:14:12.584Z,3.50
2019-05-22T04:15:17.664Z,3.50
2019-05-22T04:16:24.993Z,3.00
2019-05-22T04:17:29.185Z,2.40
2019-05-22T04:18:33.144Z,2.77
2019-05-22T04:19:49.646Z,2.80
2019-05-22T04:20:42.994Z,4.27
2019-05-22T04:21:47.863Z,5.67
2019-05-22T04:22:53.127Z,3.30
2019-05-22T04:23:57.410Z,3.27
2019-05-22T04:25:01.368Z,3.77
2019-05-22T04:26:09.327Z,9.63
2019-05-22T04:27:13.356Z,3.80
2019-05-22T04:28:17.991Z,4.70
2019-05-22T04:29:24.881Z,4.20
2019-05-22T04:30:30.066Z,4.00
2019-05-22T04:31:37.001Z,4.37
2019-05-22T04:32:44.255Z,4.80
2019-05-22T04:33:51.564Z,5.60
2019-05-22T04:34:57.106Z,5.07
2019-05-22T04:36:01.793Z,4.53
2019-05-22T04:37:06.067Z,4.80
2019-05-22T04:38:10.511Z,4.63
2019-05-22T04:39:23.195Z,5.83
2019-05-22T04:40:36.211Z,5.33
2019-05-22T04:41:41.511Z,5.63
2019-05-22T04:42:45.782Z,4.83
2019-05-22T04:43:50.565Z,5.27
2019-05-22T04:45:12.726Z,5.00
2019-05-22T04:46:18.175Z,5.17
2019-05-22T04:47:22.392Z,5.37
2019-05-22T04:48:27.765Z,4.87
2019-05-22T04:49:31.773Z,6.60
2019-05-22T04:50:36.044Z,6.37
2019-05-22T04:51:39.831Z,7.30
2019-05-22T04:52:44.017Z,5.40
2019-05-22T04:53:47.997Z,5.77
2019-05-22T04:54:52.835Z,5.67
2019-05-22T04:55:56.729Z,5.73
2019-05-22T04:57:02.238Z,11.83
2019-05-22T04:58:07.600Z,11.47
2019-05-22T04:59:13.286Z,5.20
2019-05-22T05:00:18.891Z,5.43
2019-05-22T05:01:23.756Z,5.43
2019-05-22T05:02:28.015Z,5.93
2019-05-22T05:03:32.580Z,6.43
2019-05-22T05:04:36.205Z,6.93
2019-05-22T05:05:42.272Z,6.73
2019-05-22T05:06:46.167Z,7.60
2019-05-22T05:07:52.753Z,8.33
2019-05-22T05:08:57.370Z,7.57
2019-05-22T05:10:01.734Z,9.17
2019-05-22T05:11:06.170Z,15.80
2019-05-22T05:12:11.252Z,21.83
2019-05-22T05:13:15.214Z,12.93
2019-05-22T05:14:19.641Z,10.33
2019-05-22T05:15:23.345Z,10.43
2019-05-22T05:16:27.642Z,10.37
2019-05-22T05:17:31.595Z,10.73
2019-05-22T05:18:36.455Z,11.00
2019-05-22T05:19:40.565Z,10.97
2019-05-22T05:20:45.301Z,10.30
2019-05-22T05:21:49.445Z,9.53
2019-05-22T05:22:54.103Z,9.43
2019-05-22T05:23:57.837Z,9.17
2019-05-22T05:25:02.376Z,9.03
2019-05-22T05:26:06.572Z,8.40
2019-05-22T05:27:11.449Z,6.53
2019-05-22T05:28:16.737Z,5.83
2019-05-22T05:29:29.602Z,6.57
2019-05-22T05:30:33.390Z,8.03
2019-05-22T05:31:37.613Z,10.07
2019-05-22T05:32:43.215Z,5.30
2019-05-22T05:34:17.745Z,5.07
2019-05-22T05:35:22.161Z,6.83
2019-05-22T05:36:26.858Z,7.30
2019-05-22T05:37:30.849Z,6.77
2019-05-22T05:38:39.573Z,7.33
2019-05-22T05:39:46.107Z,6.60
2019-05-22T05:40:50.907Z,5.83
2019-05-22T05:41:54.639Z,6.57
2019-05-22T05:43:00.154Z,6.30
2019-05-22T05:44:04.676Z,6.03
2019-05-22T05:45:13.503Z,6.33
2019-05-22T05:46:17.664Z,6.07
2019-05-22T05:47:22.312Z,5.63
2019-05-22T05:48:28.021Z,6.50
2019-05-22T05:49:32.335Z,4.77
2019-05-22T05:50:40.206Z,4.93
2019-05-22T05:51:43.572Z,4.97
2019-05-22T05:52:48.076Z,4.73
2019-05-22T05:53:59.291Z,5.33
2019-05-22T05:55:03.722Z,4.87
2019-05-22T05:56:17.174Z,5.10
2019-05-22T05:57:39.218Z,4.90
2019-05-22T05:58:44.120Z,4.67
2019-05-22T05:59:49.532Z,4.93
2019-05-22T06:00:56.917Z,4.70
2019-05-22T06:02:00.649Z,4.90
2019-05-22T06:03:35.350Z,5.10
2019-05-22T06:04:39.601Z,4.97
2019-05-22T06:05:45.593Z,4.60
2019-05-22T06:07:00.528Z,4.93
2019-05-22T06:08:02.392Z,4.40
2019-05-22T06:09:10.900Z,4.97
2019-05-22T06:10:30.720Z,4.63
2019-05-22T06:11:56.568Z,4.23
2019-05-22T06:13:02.435Z,4.70
2019-05-22T06:14:08.782Z,4.70
2019-05-22T06:15:13.857Z,4.30
2019-05-22T06:16:20.874Z,4.90
2019-05-22T06:17:41.018Z,4.30
2019-05-22T06:18:44.723Z,3.93
2019-05-22T06:19:54.544Z,4.10
2019-05-22T06:21:04.000Z,4.10
2019-05-22T06:22:04.916Z,3.60
2019-05-22T06:23:27.639Z,4.67
2019-05-22T06:24:40.821Z,4.07
2019-05-22T06:25:45.110Z,4.50
2019-05-22T06:26:58.419Z,4.30
2019-05-22T06:28:04.992Z,4.23
2019-05-22T06:29:11.131Z,3.80
2019-05-22T06:30:17.923Z,3.77
2019-05-22T06:31:37.815Z,3.70
2019-05-22T06:33:13.333Z,3.67
2019-05-22T06:34:17.585Z,3.33
2019-05-22T06:35:21.874Z,3.30
2019-05-22T06:36:26.396Z,3.90
2019-05-22T06:37:39.100Z,8.93
2019-05-22T06:38:49.393Z,3.90
2019-05-22T06:39:53.012Z,3.87
2019-05-22T06:40:57.958Z,3.60
2019-05-22T06:42:02.261Z,3.63
2019-05-22T06:43:21.493Z,4.47
2019-05-22T06:44:35.775Z,4.07
2019-05-22T06:45:39.970Z,3.60
2019-05-22T06:46:46.082Z,4.33
2019-05-22T06:47:50.391Z,5.10
2019-05-22T06:48:57.426Z,4.50
2019-05-22T06:50:02.299Z,4.10
2019-05-22T06:51:18.630Z,4.57
2019-05-22T06:52:13.459Z,4.00
2019-05-22T06:53:17.606Z,4.30
2019-05-22T06:54:21.787Z,4.00
2019-05-22T06:55:25.347Z,3.63
2019-05-22T06:56:29.750Z,4.33
2019-05-22T06:57:34.963Z,4.33
2019-05-22T06:58:39.172Z,4.40
2019-05-22T06:59:43.638Z,4.03
2019-05-22T07:00:48.333Z,3.73
2019-05-22T07:02:00.783Z,3.73
2019-05-22T07:02:58.968Z,4.17
2019-05-22T07:04:02.899Z,4.07
2019-05-22T07:05:08.509Z,3.47
2019-05-22T07:06:12.629Z,3.33
2019-05-22T07:07:18.040Z,3.43
2019-05-22T07:08:21.765Z,3.57
2019-05-22T07:09:26.636Z,4.13
2019-05-22T07:10:31.766Z,4.10
2019-05-22T07:11:36.037Z,4.00
2019-05-22T07:12:40.142Z,3.60
2019-05-22T07:13:45.235Z,3.27
2019-05-22T07:15:08.598Z,3.70
2019-05-22T07:16:12.808Z,3.30
2019-05-22T07:17:18.029Z,3.40
2019-05-22T07:18:23.585Z,3.10
2019-05-22T07:19:29.518Z,3.10
2019-05-22T07:20:35.052Z,3.20
2019-05-22T07:21:39.558Z,3.70
2019-05-22T07:22:44.761Z,3.97
2019-05-22T07:23:49.071Z,3.70
2019-05-22T07:24:53.367Z,3.67
2019-05-22T07:25:58.744Z,3.07
2019-05-22T07:27:25.100Z,3.30
2019-05-22T07:28:29.108Z,3.87
2019-05-22T07:29:34.378Z,3.10
2019-05-22T07:30:39.092Z,3.00
2019-05-22T07:31:43.372Z,3.13
2019-05-22T07:32:47.093Z,3.50
2019-05-22T07:33:53.420Z,3.67
2019-05-22T07:34:57.621Z,3.97
2019-05-22T07:36:12.051Z,3.57
2019-05-22T07:37:07.153Z,3.27
2019-05-22T07:38:12.039Z,3.20
2019-05-22T07:39:15.757Z,3.20
2019-05-22T07:40:20.456Z,3.10
2019-05-22T07:41:24.703Z,2.90
2019-05-22T07:42:29.102Z,2.97
2019-05-22T07:43:33.278Z,2.90
2019-05-22T07:44:37.565Z,3.13
2019-05-22T07:45:41.671Z,3.20
2019-05-22T07:46:46.400Z,3.10
2019-05-22T07:47:52.094Z,3.03
2019-05-22T07:48:56.524Z,3.20
2019-05-22T07:50:00.265Z,3.00
2019-05-22T07:51:04.459Z,3.10
2019-05-22T07:52:08.671Z,2.53
2019-05-22T07:53:13.082Z,3.03
2019-05-22T07:54:16.719Z,2.57
2019-05-22T07:55:22.878Z,3.17
2019-05-22T07:56:28.629Z,2.50
2019-05-22T07:57:34.807Z,2.80
2019-05-22T07:58:38.729Z,2.70
2019-05-22T07:59:42.958Z,2.73
2019-05-22T08:00:51.173Z,2.43
2019-05-22T08:01:55.349Z,2.60
2019-05-22T08:02:59.910Z,2.97
2019-05-22T08:04:05.236Z,2.23
2019-05-22T08:05:09.687Z,2.50
2019-05-22T08:06:15.268Z,2.20
2019-05-22T08:07:20.644Z,2.10
2019-05-22T08:08:26.544Z,2.23
2019-05-22T08:09:30.625Z,2.13
2019-05-22T08:10:35.138Z,2.00
2019-05-22T08:11:39.089Z,1.90
2019-05-22T08:12:44.656Z,1.77
2019-05-22T08:13:48.755Z,1.77
2019-05-22T08:14:53.787Z,1.80
2019-05-22T08:15:58.196Z,1.77
2019-05-22T08:17:05.141Z,1.73
2019-05-22T08:18:09.551Z,1.70
2019-05-22T08:19:13.858Z,1.70
2019-05-22T08:20:17.470Z,1.65
2019-05-22T08:21:23.567Z,1.75
2019-05-22T08:22:29.858Z,1.90
2019-05-22T08:23:35.152Z,2.15
2019-05-22T08:24:39.355Z,1.85
2019-05-22T08:25:43.983Z,1.75
2019-05-22T08:26:54.324Z,8.45
2019-05-22T08:27:56.688Z,4.85
2019-05-22T08:29:01.741Z,3.40
2019-05-22T08:30:08.461Z,3.37
2019-05-22T08:31:13.271Z,3.08
2019-05-22T08:32:19.461Z,2.55
2019-05-22T08:33:25.378Z,2.40
2019-05-22T08:34:29.569Z,2.22
2019-05-22T08:35:34.021Z,1.32
2019-05-22T08:36:39.386Z,2.08
2019-05-22T08:37:44.562Z,1.20
2019-05-22T08:38:49.341Z,1.20
2019-05-22T08:39:53.179Z,1.22
2019-05-22T08:40:59.261Z,1.47
2019-05-22T08:42:05.568Z,1.27
2019-05-22T08:43:10.081Z,1.52
2019-05-22T08:44:17.407Z,1.20
2019-05-22T08:45:22.091Z,0.60
2019-05-22T08:46:26.638Z,1.40
2019-05-22T08:47:31.219Z,1.60
2019-05-22T08:48:36.483Z,2.90
2019-05-22T08:49:41.232Z,2.25
2019-05-22T08:50:46.658Z,1.37
2019-05-22T08:51:51.006Z,0.82
2019-05-22T08:52:55.291Z,0.80
2019-05-22T08:54:00.689Z,0.85
2019-05-22T08:55:07.123Z,1.75
2019-05-22T08:56:11.717Z,1.20
2019-05-22T08:57:16.198Z,1.30
2019-05-22T08:58:20.385Z,1.47
2019-05-22T08:59:24.984Z,1.57
2019-05-22T09:00:30.537Z,1.75
2019-05-22T09:01:34.177Z,1.40
2019-05-22T09:02:38.942Z,1.42
2019-05-22T09:03:42.895Z,1.40
2019-05-22T09:04:47.556Z,1.40
2019-05-22T09:05:52.097Z,1.15
2019-05-22T09:06:57.273Z,1.02
2019-05-22T09:08:01.052Z,0.88
2019-05-22T09:09:07.329Z,0.80
2019-05-22T09:10:12.628Z,1.02
2019-05-22T09:11:17.031Z,0.85
2019-05-22T09:12:20.675Z,1.10
2019-05-22T09:13:24.858Z,0.80
2019-05-22T09:14:28.580Z,0.72
2019-05-22T09:15:34.185Z,0.80
2019-05-22T09:16:38.071Z,0.90
2019-05-22T09:17:42.274Z,0.90
2019-05-22T09:18:46.382Z,0.82
2019-05-22T09:19:51.337Z,0.80
2019-05-22T09:20:55.277Z,0.80
2019-05-22T09:21:59.557Z,0.60
2019-05-22T09:23:05.349Z,0.70
2019-05-22T09:24:12.557Z,0.72
2019-05-22T09:25:17.190Z,0.65
2019-05-22T09:26:23.193Z,0.68
2019-05-22T09:27:27.324Z,0.60
2019-05-22T09:28:31.652Z,0.50
2019-05-22T09:29:35.573Z,0.60
2019-05-22T09:30:40.727Z,0.33
2019-05-22T09:31:44.723Z,0.50
2019-05-22T09:32:49.023Z,0.60
2019-05-22T09:33:53.293Z,0.30
2019-05-22T09:34:57.653Z,0.53
2019-05-22T09:36:01.378Z,0.55
2019-05-22T09:37:06.413Z,0.50
2019-05-22T09:38:10.377Z,0.60
2019-05-22T09:39:14.558Z,0.42
2019-05-22T09:40:18.808Z,0.30
2019-05-22T09:41:23.491Z,0.40
2019-05-22T09:42:27.881Z,0.70
2019-05-22T09:43:32.140Z,1.05
2019-05-22T09:44:35.815Z,0.90
2019-05-22T09:45:40.096Z,0.55
2019-05-22T09:46:44.481Z,0.88
2019-05-22T09:47:48.971Z,0.50
2019-05-22T09:48:52.763Z,1.00
2019-05-22T09:49:57.423Z,0.68
2019-05-22T09:51:02.091Z,0.90
2019-05-22T09:52:09.915Z,0.50
2019-05-22T09:53:14.005Z,0.37
2019-05-22T09:54:18.597Z,0.33
2019-05-22T09:55:23.087Z,0.45
2019-05-22T09:56:29.340Z,0.60
2019-05-22T09:57:33.145Z,0.42
2019-05-22T09:58:37.665Z,0.30
2019-05-22T09:59:41.293Z,0.30
2019-05-22T10:00:45.479Z,0.30
2019-05-22T10:01:49.666Z,0.50
2019-05-22T10:02:54.482Z,0.30
2019-05-22T10:03:58.328Z,0.30
2019-05-22T10:05:02.526Z,0.20
2019-05-22T10:06:07.659Z,0.33
2019-05-22T10:07:11.893Z,0.30
2019-05-22T10:08:15.659Z,0.30
2019-05-22T10:09:19.862Z,0.20
2019-05-22T10:10:25.143Z,0.35
2019-05-22T10:11:29.925Z,0.30
2019-05-22T10:12:33.834Z,0.53
2019-05-22T10:13:38.296Z,0.50
2019-05-22T10:14:42.551Z,0.85
2019-05-22T10:15:46.965Z,0.57
2019-05-22T10:16:50.563Z,0.65
2019-05-22T10:17:55.717Z,0.70
2019-05-22T10:18:59.817Z,0.40
2019-05-22T10:20:04.982Z,0.35
2019-05-22T10:21:09.389Z,0.35
2019-05-22T10:22:14.401Z,0.40
2019-05-22T10:23:19.005Z,0.40
2019-05-22T10:24:23.425Z,0.33
2019-05-22T10:25:28.043Z,0.60
2019-05-22T10:26:32.360Z,0.50
2019-05-22T10:27:36.983Z,0.40
2019-05-22T10:28:42.267Z,0.70
2019-05-22T10:29:46.817Z,0.40
2019-05-22T10:30:51.780Z,0.40
2019-05-22T10:31:55.636Z,0.30
2019-05-22T10:33:00.403Z,0.28
2019-05-22T10:34:04.294Z,0.40
2019-05-22T10:35:09.178Z,0.40
2019-05-22T10:36:13.508Z,0.47
2019-05-22T10:37:17.893Z,7.15
2019-05-22T10:38:21.728Z,5.30
2019-05-22T10:39:26.477Z,1.60
2019-05-22T10:40:30.163Z,1.40
2019-05-22T10:41:34.628Z,0.75
2019-05-22T10:42:38.274Z,0.70
2019-05-22T10:43:42.740Z,0.50
2019-05-22T10:44:46.517Z,0.30
2019-05-22T10:45:50.783Z,0.50
2019-05-22T10:46:54.528Z,0.30
2019-05-22T10:47:58.804Z,0.40
2019-05-22T10:49:02.721Z,0.30
2019-05-22T10:50:08.151Z,0.40
2019-05-22T10:51:12.080Z,0.30
2019-05-22T10:52:17.169Z,0.40
2019-05-22T10:53:33.045Z,0.40
2019-05-22T10:54:27.019Z,0.40
2019-05-22T10:55:30.649Z,0.40
2019-05-22T10:56:35.147Z,0.60
2019-05-22T10:57:40.868Z,0.37
2019-05-22T10:58:45.393Z,0.40
2019-05-22T10:59:49.041Z,0.30
2019-05-22T11:00:54.023Z,0.50
2019-05-22T11:01:57.728Z,0.55
2019-05-22T11:03:02.048Z,0.70
2019-05-22T11:04:06.019Z,0.70
2019-05-22T11:05:11.179Z,0.55
2019-05-22T11:06:14.866Z,0.50
2019-05-22T11:07:20.122Z,0.60
2019-05-22T11:08:24.878Z,0.60
2019-05-22T11:09:29.287Z,0.40
2019-05-22T11:10:33.306Z,0.40
2019-05-22T11:11:38.064Z,0.28
2019-05-22T11:12:41.690Z,0.30
2019-05-22T11:13:59.919Z,0.40
2019-05-22T11:14:51.959Z,0.30
2019-05-22T11:15:57.481Z,0.37
2019-05-22T11:17:01.596Z,0.50
2019-05-22T11:18:06.982Z,0.30
2019-05-22T11:19:10.751Z,0.30
2019-05-22T11:20:16.102Z,0.40
2019-05-22T11:21:20.122Z,0.28
2019-05-22T11:22:24.594Z,0.55
2019-05-22T11:23:29.142Z,0.47
2019-05-22T11:24:33.707Z,0.30
2019-05-22T11:25:37.769Z,0.40
2019-05-22T11:26:42.678Z,0.47
2019-05-22T11:27:47.206Z,0.47
2019-05-22T11:28:51.483Z,0.40
2019-05-22T11:29:55.357Z,0.30
2019-05-22T11:31:00.186Z,0.30
2019-05-22T11:32:04.070Z,0.30
2019-05-22T11:33:10.160Z,0.33
2019-05-22T11:34:14.119Z,0.50
2019-05-22T11:35:19.772Z,0.40
2019-05-22T11:36:24.596Z,0.40
2019-05-22T11:37:28.855Z,0.50
2019-05-22T11:38:32.854Z,0.37
2019-05-22T11:39:40.315Z,0.55
2019-05-22T11:40:44.006Z,0.42
2019-05-22T11:41:51.795Z,0.68
2019-05-22T11:42:55.661Z,0.45
2019-05-22T11:44:00.273Z,0.47
2019-05-22T11:45:05.022Z,0.50
2019-05-22T11:46:09.552Z,0.40
2019-05-22T11:47:15.277Z,0.40
2019-05-22T11:48:19.853Z,0.40
2019-05-22T11:49:24.280Z,0.35
2019-05-22T11:50:29.681Z,0.30
2019-05-22T11:51:33.521Z,0.40
2019-05-22T11:52:38.913Z,0.50
2019-05-22T11:53:43.060Z,0.60
2019-05-22T11:54:47.444Z,0.35
2019-05-22T11:55:51.114Z,0.40
2019-05-22T11:56:55.358Z,0.20
2019-05-22T11:57:59.369Z,0.70
2019-05-22T11:59:04.454Z,0.30
2019-05-22T12:00:09.499Z,3.15
2019-05-22T12:01:14.309Z,4.92
2019-05-22T12:02:19.338Z,0.93
2019-05-22T12:03:25.317Z,1.17
2019-05-22T12:04:46.632Z,3.00
2019-05-22T12:05:36.485Z,1.45
2019-05-22T12:06:40.839Z,0.45
2019-05-22T12:07:46.881Z,0.40
2019-05-22T12:08:51.193Z,0.82
2019-05-22T12:09:56.449Z,1.27
2019-05-22T12:11:02.039Z,0.75
2019-05-22T12:12:06.862Z,0.57
2019-05-22T12:13:10.860Z,0.50
2019-05-22T12:14:17.056Z,0.50
2019-05-22T12:15:24.114Z,0.40
2019-05-22T12:16:29.046Z,0.50
2019-05-22T12:17:38.020Z,0.40
2019-05-22T12:18:39.906Z,0.50
2019-05-22T12:19:43.776Z,0.45
2019-05-22T12:20:48.745Z,0.68
2019-05-22T12:21:54.679Z,0.50
2019-05-22T12:22:59.603Z,0.30
2019-05-22T12:24:03.265Z,0.60
2019-05-22T12:25:10.792Z,0.70
2019-05-22T12:26:14.502Z,0.40
2019-05-22T12:27:18.770Z,0.40
2019-05-22T12:28:22.875Z,0.30
2019-05-22T12:29:27.787Z,0.30
2019-05-22T12:30:32.125Z,0.50
2019-05-22T12:31:36.376Z,0.50
2019-05-22T12:32:40.971Z,0.30
2019-05-22T12:33:45.514Z,0.50
2019-05-22T12:34:49.829Z,0.30
2019-05-22T12:35:54.767Z,0.30
2019-05-22T12:36:59.112Z,0.30
2019-05-22T12:38:05.397Z,0.50
2019-05-22T12:39:10.536Z,0.20
2019-05-22T12:40:17.863Z,0.42
2019-05-22T12:41:22.432Z,0.50
2019-05-22T12:42:27.931Z,0.33
2019-05-22T12:43:31.953Z,0.30
2019-05-22T12:44:36.150Z,0.50
2019-05-22T12:45:40.122Z,0.35
2019-05-22T12:46:44.715Z,0.50
2019-05-22T12:47:48.342Z,0.40
2019-05-22T12:48:53.557Z,0.60
2019-05-22T12:49:57.196Z,0.50
2019-05-22T12:51:01.527Z,0.45
2019-05-22T12:52:06.373Z,0.57
2019-05-22T12:53:12.110Z,0.75
2019-05-22T12:54:16.378Z,0.40
2019-05-22T12:55:21.539Z,0.62
2019-05-22T12:56:25.174Z,0.65
2019-05-22T12:57:29.776Z,0.68
2019-05-22T12:58:34.380Z,0.40
2019-05-22T12:59:39.198Z,0.50
2019-05-22T13:00:43.222Z,0.33
2019-05-22T13:01:48.007Z,0.30
2019-05-22T13:02:53.126Z,0.25
2019-05-22T13:03:59.801Z,0.30
2019-05-22T13:05:05.142Z,0.30
2019-05-22T13:06:10.723Z,0.30
2019-05-22T13:07:15.269Z,0.53
2019-05-22T13:08:20.081Z,0.40
2019-05-22T13:09:24.685Z,0.50
2019-05-22T13:10:29.386Z,17.57
2019-05-22T13:11:33.279Z,1.70
2019-05-22T13:12:37.795Z,0.90
2019-05-22T13:13:42.296Z,2.08
2019-05-22T13:14:46.679Z,0.53
2019-05-22T13:15:50.608Z,0.85
2019-05-22T13:17:03.559Z,0.55
2019-05-22T13:18:08.385Z,1.40
2019-05-22T13:19:14.020Z,0.95
2019-05-22T13:20:41.094Z,0.60
2019-05-22T13:21:33.655Z,0.85
2019-05-22T13:22:39.451Z,0.75
2019-05-22T13:23:46.530Z,0.42
2019-05-22T13:24:50.239Z,0.40
2019-05-22T13:25:55.196Z,0.60
2019-05-22T13:26:59.187Z,0.50
2019-05-22T13:28:06.291Z,0.23
2019-05-22T13:29:11.753Z,0.40
2019-05-22T13:30:17.856Z,0.60
2019-05-22T13:31:23.162Z,0.65
2019-05-22T13:32:28.326Z,1.02
2019-05-22T13:33:33.411Z,0.60
2019-05-22T13:34:38.437Z,0.90
2019-05-22T13:35:43.072Z,0.50
2019-05-22T13:36:48.225Z,0.60
2019-05-22T13:37:52.229Z,0.40
2019-05-22T13:38:56.436Z,0.30
2019-05-22T13:40:00.090Z,0.40
2019-05-22T13:41:05.044Z,0.42
2019-05-22T13:42:09.378Z,0.40
2019-05-22T13:43:14.177Z,0.40
2019-05-22T13:44:18.676Z,0.40
2019-05-22T13:45:29.491Z,0.53
2019-05-22T13:46:29.128Z,0.50
2019-05-22T13:47:34.070Z,0.40
2019-05-22T13:48:37.699Z,0.45
2019-05-22T13:49:43.353Z,0.40
2019-05-22T13:50:48.037Z,0.40
2019-05-22T13:51:52.750Z,0.40
2019-05-22T13:52:56.411Z,1.05
2019-05-22T13:54:01.201Z,0.93
2019-05-22T13:55:07.914Z,0.62
2019-05-22T13:56:12.834Z,0.47
2019-05-22T13:57:16.822Z,0.40
2019-05-22T13:58:22.204Z,0.40
2019-05-22T13:59:26.203Z,0.40
2019-05-22T14:00:30.889Z,0.50
2019-05-22T14:01:34.887Z,0.30
2019-05-22T14:02:40.054Z,0.33
2019-05-22T14:03:44.167Z,0.50
2019-05-22T14:04:48.711Z,0.68
2019-05-22T14:05:53.226Z,0.50
2019-05-22T14:06:57.857Z,0.30
2019-05-22T14:08:01.597Z,0.65
2019-05-22T14:09:08.785Z,0.45
2019-05-22T14:10:12.785Z,0.50
2019-05-22T14:11:17.645Z,1.30
2019-05-22T14:12:21.719Z,0.90
2019-05-22T14:13:27.897Z,3.22
2019-05-22T14:14:31.686Z,2.15
2019-05-22T14:15:50.017Z,1.05
2019-05-22T14:16:48.684Z,1.40
2019-05-22T14:17:47.737Z,0.90
2019-05-22T14:18:51.583Z,0.57
2019-05-22T14:19:55.864Z,0.85
2019-05-22T14:20:59.821Z,0.55
2019-05-22T14:22:05.241Z,0.88
2019-05-22T14:23:09.733Z,0.95
2019-05-22T14:24:14.021Z,0.78
2019-05-22T14:25:19.523Z,0.60
2019-05-22T14:26:24.057Z,0.93
2019-05-22T14:27:27.874Z,0.60
2019-05-22T14:28:33.072Z,0.60
2019-05-22T14:29:37.574Z,1.40
2019-05-22T14:30:41.832Z,0.80
2019-05-22T14:31:45.765Z,0.40
2019-05-22T14:32:50.220Z,2.77
2019-05-22T14:33:54.709Z,0.60
2019-05-22T14:34:59.289Z,0.60